Bacobi, Arizona
Current Conditions -  °F | °C
As of 10:53 PM on Wednesday 22 Oct 2014 (Local Time) from KPGA Reporting Station
Clear Clear  
Wind Chill: 61°   Ceiling: Unl
Heat Index: 61°   Visibility: 10mi
Dew Point: 33°   Wind: 0mph
Humidity: 35%   Direction: NA
Pressure: 30.14"   Gusts: NA
Location:  36.2405°N, 110.59°W
Report Text: KPGA 230553Z AUTO 00000KT 10SM CLR 16/01 A3014 RMK AO2 SLP161 T01610006 10244 20161 51010
Loading
Personal Weather Stations






























Interactive Weather Map
Tropical Storm Tracking
New forecast layout! Learn more

10-Day Weather Forecast

Advertisements
Track Severe Weather on mobile